Time;durP1;ratioP1;P1;durP2;ratioP2;P2;SDS_P1;SDS_P2;PMS_P1;PMS_P2;Temp;Humidity;BMP_temperature;BMP_pressure;BME280_temperature;BME280_humidity;BME280_pressure;Samples;Min_cycle;Max_cycle;Signal;HPM_P1;HPM_P2
2022/10/24 00:03:02;;;;;;;4.78;2.80;;;18.10;99.90;;;;;;10051699;28;20391;-65
2022/10/24 00:07:53;;;;;;;6.35;2.60;;;18.00;99.90;;;;;;10052844;28;20403;-65
2022/10/24 00:12:45;;;;;;;10.32;3.70;;;17.90;99.90;;;;;;10042467;28;20265;-65
2022/10/24 00:17:36;;;;;;;3.78;2.40;;;17.80;99.90;;;;;;10047827;28;20554;-65
2022/10/24 00:22:27;;;;;;;6.32;3.17;;;17.70;99.90;;;;;;10049879;28;20041;-65
2022/10/24 00:27:18;;;;;;;6.22;2.38;;;17.60;99.90;;;;;;10048114;28;20083;-65
2022/10/24 00:32:08;;;;;;;7.38;3.20;;;17.60;99.90;;;;;;10057376;28;20581;-64
2022/10/24 00:36:59;;;;;;;8.85;3.63;;;17.60;99.90;;;;;;10059150;28;20485;-65
2022/10/24 00:41:53;;;;;;;7.75;3.67;;;17.60;99.90;;;;;;10059786;28;20029;-64
2022/10/24 00:46:48;;;;;;;5.60;2.20;;;17.60;99.90;;;;;;10058191;28;20020;-63
2022/10/24 00:51:40;;;;;;;7.63;2.35;;;17.60;99.90;;;;;;10055169;28;20522;-64
2022/10/24 00:56:34;;;;;;;4.28;2.35;;;17.70;99.90;;;;;;10054422;28;20087;-65
2022/10/24 01:01:26;;;;;;;6.77;2.60;;;17.70;99.90;;;;;;10052767;28;20186;-65
2022/10/24 01:06:30;;;;;;;5.57;2.42;;;17.70;99.90;;;;;;10052158;28;20460;-65
2022/10/24 01:11:41;;;;;;;7.88;3.33;;;17.60;99.90;;;;;;10053977;28;20040;-65
2022/10/24 01:16:59;;;;;;;7.35;1.98;;;17.60;99.90;;;;;;10053715;28;20037;-66
2022/10/24 01:21:58;;;;;;;3.15;2.22;;;17.70;99.90;;;;;;10053118;28;20349;-65
2022/10/24 01:27:07;;;;;;;5.53;2.13;;;17.90;99.90;;;;;;10055539;28;20017;-66
2022/10/24 01:32:11;;;;;;;6.35;2.50;;;18.10;99.90;;;;;;10056666;28;20025;-64
2022/10/24 01:37:08;;;;;;;4.35;2.60;;;18.10;99.90;;;;;;10056929;28;20117;-64
2022/10/24 01:42:01;;;;;;;5.47;1.75;;;18.10;99.90;;;;;;10057291;28;20040;-64
2022/10/24 01:46:58;;;;;;;4.25;2.22;;;18.00;99.90;;;;;;10057491;28;20387;-65
2022/10/24 01:51:55;;;;;;;8.15;2.30;;;18.00;99.90;;;;;;10057287;28;20075;-64
2022/10/24 01:56:45;;;;;;;5.13;1.88;;;17.90;99.90;;;;;;10056860;28;20467;-64
2022/10/24 02:01:37;;;;;;;5.63;1.88;;;17.90;99.90;;;;;;10056180;28;20116;-65
2022/10/24 02:06:38;;;;;;;5.63;1.88;;;17.80;99.90;;;;;;10051234;28;20276;-65
2022/10/24 02:11:29;;;;;;;6.80;2.47;;;17.70;99.90;;;;;;10060074;28;20022;-64
2022/10/24 02:16:20;;;;;;;3.53;1.77;;;17.90;99.90;;;;;;10050702;28;20033;-65
2022/10/24 02:21:24;;;;;;;6.38;1.88;;;17.90;99.90;;;;;;10050360;28;20033;-64
2022/10/24 02:26:34;;;;;;;6.30;2.60;;;17.90;99.90;;;;;;10052357;28;20487;-64
2022/10/24 02:31:31;;;;;;;8.35;2.83;;;17.90;99.90;;;;;;10049370;28;20029;-64
2022/10/24 02:36:25;;;;;;;8.50;2.50;;;17.80;99.90;;;;;;10051108;28;20036;-65
2022/10/24 02:41:22;;;;;;;5.75;1.73;;;17.80;99.90;;;;;;10050176;28;20203;-65
2022/10/24 02:46:14;;;;;;;5.68;1.60;;;17.70;99.90;;;;;;10050554;28;20067;-66
2022/10/24 02:51:05;;;;;;;8.45;2.67;;;17.70;99.90;;;;;;10050109;28;20048;-65
2022/10/24 02:55:56;;;;;;;7.40;2.63;;;17.70;99.90;;;;;;10049625;28;20032;-65
2022/10/24 03:00:47;;;;;;;7.90;2.35;;;17.70;99.90;;;;;;10049944;28;20040;-65
2022/10/24 03:05:37;;;;;;;4.07;1.83;;;17.70;99.90;;;;;;10041875;28;20026;-66
2022/10/24 03:10:28;;;;;;;6.30;2.83;;;17.70;99.90;;;;;;10049355;28;20035;-65
2022/10/24 03:15:19;;;;;;;11.77;1.92;;;17.70;99.90;;;;;;10049010;28;20439;-65
2022/10/24 03:20:09;;;;;;;8.77;2.40;;;17.80;99.90;;;;;;10055107;28;20045;-65
2022/10/24 03:25:02;;;;;;;8.85;1.83;;;17.80;99.90;;;;;;10050991;28;20079;-65
2022/10/24 03:29:52;;;;;;;3.22;2.08;;;17.80;99.90;;;;;;10053226;28;20017;-65
2022/10/24 03:34:43;;;;;;;4.70;2.38;;;17.80;99.90;;;;;;10053494;28;20055;-65
2022/10/24 03:39:34;;;;;;;5.22;1.77;;;17.70;99.90;;;;;;10052661;28;20055;-64
2022/10/24 03:44:24;;;;;;;6.72;1.95;;;17.80;99.90;;;;;;10051302;28;20345;-65
2022/10/24 03:49:15;;;;;;;9.07;2.75;;;17.90;99.90;;;;;;10048661;28;20041;-66
2022/10/24 03:54:06;;;;;;;7.50;2.50;;;18.00;99.90;;;;;;10048747;28;20031;-66
2022/10/24 03:58:56;;;;;;;5.68;2.00;;;18.10;99.90;;;;;;10048606;28;20037;-64
2022/10/24 04:03:47;;;;;;;9.73;3.15;;;18.20;99.90;;;;;;10048563;28;20038;-65
2022/10/24 04:08:37;;;;;;;8.60;2.85;;;18.20;99.90;;;;;;10058776;28;20044;-64
2022/10/24 04:13:28;;;;;;;6.15;1.95;;;18.20;99.90;;;;;;10058990;28;20132;-64
2022/10/24 04:18:19;;;;;;;8.15;2.72;;;18.10;99.90;;;;;;10064684;28;20037;-64
2022/10/24 04:23:10;;;;;;;6.45;2.30;;;18.00;99.90;;;;;;10059276;28;20515;-65
2022/10/24 04:28:00;;;;;;;4.90;2.60;;;18.00;99.90;;;;;;10061031;28;20433;-66
2022/10/24 04:32:51;;;;;;;7.45;2.60;;;18.10;99.90;;;;;;10060922;28;20025;-64
2022/10/24 04:37:42;;;;;;;7.32;2.42;;;18.10;99.90;;;;;;10060521;28;20040;-65
2022/10/24 04:42:32;;;;;;;6.38;2.10;;;18.10;99.90;;;;;;10062962;28;20021;-65
2022/10/24 04:47:23;;;;;;;6.38;2.40;;;18.20;99.90;;;;;;10064858;28;20480;-65
2022/10/24 04:52:14;;;;;;;7.82;2.72;;;18.10;99.90;;;;;;10064278;28;20035;-65
2022/10/24 04:57:04;;;;;;;8.85;2.58;;;18.00;99.90;;;;;;10065067;28;20079;-65
2022/10/24 05:01:55;;;;;;;7.07;2.13;;;17.80;99.90;;;;;;10063695;28;20040;-66
2022/10/24 05:06:46;;;;;;;6.80;2.05;;;17.70;99.90;;;;;;10054302;28;20088;-66
2022/10/24 05:11:36;;;;;;;7.85;2.30;;;17.60;99.90;;;;;;10062048;28;20053;-65
2022/10/24 05:16:27;;;;;;;4.75;1.80;;;17.60;99.90;;;;;;10057473;28;20397;-66
2022/10/24 05:21:17;;;;;;;5.60;2.15;;;17.50;99.90;;;;;;10051888;28;20044;-64
2022/10/24 05:26:08;;;;;;;7.65;1.90;;;17.30;99.90;;;;;;10052012;28;20073;-65
2022/10/24 05:30:59;;;;;;;5.68;1.83;;;17.40;99.90;;;;;;10051606;28;20036;-65
2022/10/24 05:35:51;;;;;;;6.70;1.80;;;17.40;99.90;;;;;;10053855;28;20495;-65
2022/10/24 05:40:41;;;;;;;5.32;1.50;;;17.40;99.90;;;;;;10052794;28;20033;-65
2022/10/24 05:45:33;;;;;;;4.13;1.75;;;17.50;99.90;;;;;;10052628;28;20030;-64
2022/10/24 05:50:25;;;;;;;8.27;2.10;;;17.40;99.90;;;;;;10050698;28;20068;-64
2022/10/24 05:55:16;;;;;;;3.97;1.50;;;17.30;99.90;;;;;;10051251;28;20021;-65
2022/10/24 06:00:10;;;;;;;7.57;2.08;;;17.10;99.90;;;;;;10046604;28;20396;-65
2022/10/24 06:05:01;;;;;;;6.90;2.17;;;17.10;99.90;;;;;;10045699;28;20057;-65
2022/10/24 06:09:52;;;;;;;6.28;2.03;;;17.20;99.90;;;;;;10051821;28;20029;-65
2022/10/24 06:14:43;;;;;;;7.63;2.08;;;17.20;99.90;;;;;;10051118;28;20018;-65
2022/10/24 06:19:35;;;;;;;5.75;1.73;;;17.20;99.90;;;;;;10056982;28;20407;-65
2022/10/24 06:24:26;;;;;;;5.93;1.92;;;17.20;99.90;;;;;;10055711;28;20498;-65
2022/10/24 06:29:16;;;;;;;5.72;2.10;;;17.20;99.90;;;;;;10054571;28;20044;-65
2022/10/24 06:34:07;;;;;;;2.70;1.58;;;17.20;99.90;;;;;;10053673;28;20030;-65
2022/10/24 06:38:58;;;;;;;7.55;2.40;;;17.30;99.90;;;;;;10052092;28;20160;-66
2022/10/24 06:43:48;;;;;;;6.82;2.25;;;17.20;99.90;;;;;;10052296;28;20098;-67
2022/10/24 06:48:39;;;;;;;4.82;1.77;;;17.20;99.90;;;;;;10046680;28;20307;-66
2022/10/24 06:53:31;;;;;;;4.68;1.80;;;17.30;99.90;;;;;;10048478;28;20468;-67
2022/10/24 06:58:21;;;;;;;9.02;2.53;;;17.30;99.90;;;;;;10047985;28;20267;-68
2022/10/24 07:03:15;;;;;;;5.75;1.95;;;17.30;99.90;;;;;;10061289;28;20041;-67
2022/10/24 07:08:06;;;;;;;4.18;1.83;;;17.30;99.90;;;;;;10047642;28;20033;-67
2022/10/24 07:12:56;;;;;;;5.50;2.25;;;17.30;99.90;;;;;;10047477;28;20476;-67
2022/10/24 07:17:47;;;;;;;7.82;2.28;;;17.50;99.90;;;;;;10045224;28;20021;-67
2022/10/24 07:22:38;;;;;;;7.78;1.88;;;17.60;99.90;;;;;;10047690;28;20021;-68
2022/10/24 07:27:29;;;;;;;3.83;2.28;;;17.60;99.90;;;;;;10045559;28;20036;-67
2022/10/24 07:32:20;;;;;;;4.78;3.25;;;17.70;99.90;;;;;;10045707;28;20025;-66
2022/10/24 07:37:11;;;;;;;7.25;1.85;;;17.80;99.90;;;;;;10044781;28;20022;-67
2022/10/24 07:42:01;;;;;;;6.72;1.90;;;17.80;99.90;;;;;;10045078;28;20036;-67
2022/10/24 07:46:52;;;;;;;9.38;1.98;;;17.70;99.90;;;;;;10047914;28;20069;-69
2022/10/24 07:51:43;;;;;;;6.32;1.60;;;17.80;99.90;;;;;;10039875;28;20028;-70
2022/10/24 07:56:33;;;;;;;5.88;1.50;;;17.70;99.90;;;;;;10047391;28;20038;-66
2022/10/24 08:01:25;;;;;;;4.78;1.70;;;17.60;99.90;;;;;;10050152;28;20045;-65
2022/10/24 08:06:19;;;;;;;6.20;2.10;;;17.70;99.90;;;;;;10049047;28;20033;-65
2022/10/24 08:11:16;;;;;;;3.80;1.63;;;17.70;99.90;;;;;;10051093;28;20071;-65
2022/10/24 08:16:09;;;;;;;7.90;2.08;;;17.70;99.90;;;;;;10046665;28;20514;-69
2022/10/24 08:21:02;;;;;;;8.63;1.88;;;17.80;99.90;;;;;;10048408;28;20041;-68
2022/10/24 08:25:53;;;;;;;7.18;2.35;;;17.90;99.90;;;;;;10047170;28;20057;-68
2022/10/24 08:30:43;;;;;;;5.75;1.40;;;17.90;99.90;;;;;;10041003;28;20502;-67
2022/10/24 08:35:49;;;;;;;10.95;2.30;;;17.80;99.90;;;;;;10047472;28;20021;-67
2022/10/24 08:40:39;;;;;;;;;;;17.90;99.90;;;;;;10045113;28;20117;-68
2022/10/24 08:46:12;;;;;;;7.75;2.15;;;18.00;99.90;;;;;;10044694;28;20443;-67
2022/10/24 08:51:31;;;;;;;6.40;1.85;;;18.00;99.90;;;;;;10046550;28;20542;-68
2022/10/24 08:56:23;;;;;;;6.53;1.63;;;18.00;99.90;;;;;;10053102;28;20045;-68
2022/10/24 09:01:39;;;;;;;6.80;1.95;;;18.00;99.90;;;;;;10053311;28;20048;-68
2022/10/24 09:06:32;;;;;;;6.40;2.03;;;18.00;99.90;;;;;;10050163;28;20183;-68
2022/10/24 09:11:41;;;;;;;4.82;1.85;;;18.10;99.90;;;;;;10054633;28;20424;-69
2022/10/24 09:16:31;;;;;;;5.30;2.38;;;18.20;99.90;;;;;;10050331;28;20446;-68
2022/10/24 09:21:23;;;;;;;4.18;1.88;;;18.30;99.90;;;;;;10051145;28;20540;-64
2022/10/24 09:26:21;;;;;;;6.05;2.13;;;18.30;99.90;;;;;;10051376;28;20229;-69
2022/10/24 09:31:19;;;;;;;4.88;1.83;;;18.40;99.90;;;;;;10049065;28;20029;-66
2022/10/24 09:36:12;;;;;;;6.55;2.05;;;18.40;99.90;;;;;;10053839;28;20578;-65
2022/10/24 09:41:07;;;;;;;10.23;2.22;;;18.40;99.90;;;;;;10054588;28;20080;-66
2022/10/24 09:46:04;;;;;;;5.95;2.30;;;18.40;99.90;;;;;;10051289;28;20026;-67
2022/10/24 09:50:55;;;;;;;7.53;2.33;;;18.60;99.90;;;;;;10048329;28;20514;-68
2022/10/24 09:55:52;;;;;;;6.78;1.52;;;18.70;99.90;;;;;;10050147;28;20016;-68
2022/10/24 10:00:49;;;;;;;4.85;1.50;;;18.70;99.90;;;;;;10048869;28;20029;-68
2022/10/24 10:05:45;;;;;;;7.95;2.22;;;18.70;99.90;;;;;;10047389;28;20153;-67
2022/10/24 10:10:36;;;;;;;9.07;2.15;;;18.80;99.90;;;;;;10049440;28;20022;-67
2022/10/24 10:15:42;;;;;;;4.43;2.33;;;18.80;99.90;;;;;;10047870;28;20017;-67
2022/10/24 10:20:38;;;;;;;7.60;2.15;;;18.80;99.90;;;;;;10049693;28;20091;-68
2022/10/24 10:25:31;;;;;;;4.55;1.73;;;18.90;99.90;;;;;;10041321;28;20017;-66
2022/10/24 10:30:21;;;;;;;5.60;2.03;;;18.90;99.90;;;;;;10043265;28;20029;-65
2022/10/24 10:35:31;;;;;;;4.60;1.73;;;18.90;99.90;;;;;;10049154;28;20017;-66
2022/10/24 10:40:36;;;;;;;4.07;1.85;;;19.00;99.90;;;;;;10049168;28;20138;-71
2022/10/24 10:45:27;;;;;;;4.33;2.00;;;19.10;99.90;;;;;;10048858;28;20029;-68
2022/10/24 10:50:38;;;;;;;4.32;1.48;;;19.20;99.90;;;;;;10049095;28;20280;-66
2022/10/24 10:56:01;;;;;;;10.55;1.80;;;19.20;99.90;;;;;;10043504;28;20613;-66
2022/10/24 11:01:13;;;;;;;5.32;2.13;;;19.30;99.90;;;;;;10027911;28;20048;-68
2022/10/24 11:06:18;;;;;;;7.45;3.35;;;19.50;99.90;;;;;;10047821;28;20180;-66
2022/10/24 11:11:21;;;;;;;6.43;1.63;;;19.50;99.90;;;;;;10040423;28;20585;-66
2022/10/24 11:16:20;;;;;;;5.60;1.55;;;19.50;99.90;;;;;;10030571;28;20103;-64
2022/10/24 11:21:13;;;;;;;5.97;2.15;;;19.50;99.90;;;;;;10030311;28;20029;-64
2022/10/24 11:26:25;;;;;;;4.75;2.10;;;19.60;99.90;;;;;;10051045;28;20029;-65
2022/10/24 11:31:22;;;;;;;8.25;1.63;;;19.70;99.90;;;;;;10068406;28;20482;-65
2022/10/24 11:36:31;;;;;;;6.28;1.60;;;19.60;99.90;;;;;;10052425;28;20087;-65
2022/10/24 11:41:36;;;;;;;8.95;2.00;;;19.70;99.90;;;;;;10050654;28;20045;-65
2022/10/24 11:46:52;;;;;;;5.80;1.50;;;19.90;99.90;;;;;;10051457;28;20033;-65
2022/10/24 11:51:48;;;;;;;2.70;1.83;;;20.00;99.90;;;;;;10048410;28;20044;-65
2022/10/24 11:57:14;;;;;;;4.47;2.47;;;19.90;99.90;;;;;;10050762;28;20037;-65
2022/10/24 12:02:40;;;;;;;8.93;2.15;;;19.80;99.90;;;;;;10053155;28;20041;-65
2022/10/24 12:07:51;;;;;;;5.60;1.95;;;19.70;99.90;;;;;;10049347;28;20389;-66
2022/10/24 12:12:57;;;;;;;8.65;1.88;;;20.00;99.90;;;;;;10050684;28;20022;-66
2022/10/24 12:17:54;;;;;;;5.65;1.70;;;19.90;99.90;;;;;;10052598;28;20294;-70
2022/10/24 12:22:46;;;;;;;3.28;1.77;;;20.10;99.90;;;;;;10051189;28;20124;-68
2022/10/24 12:27:38;;;;;;;6.40;1.77;;;20.30;99.90;;;;;;10054284;28;20037;-67
2022/10/24 12:32:36;;;;;;;6.70;1.73;;;20.60;99.90;;;;;;10057798;28;20063;-69
2022/10/24 12:37:31;;;;;;;5.03;1.58;;;20.80;99.90;;;;;;10057685;28;20025;-67
2022/10/24 12:42:22;;;;;;;4.32;1.70;;;21.00;99.90;;;;;;10058241;28;20490;-64
2022/10/24 12:47:30;;;;;;;5.53;1.40;;;21.10;99.90;;;;;;10054295;28;20029;-65
2022/10/24 12:52:30;;;;;;;5.38;1.73;;;20.90;99.90;;;;;;10052366;28;20014;-66
2022/10/24 12:57:24;;;;;;;3.55;1.27;;;20.70;99.90;;;;;;10055581;28;20068;-66
2022/10/24 13:02:14;;;;;;;6.40;2.05;;;20.90;99.90;;;;;;10054135;28;20439;-66
2022/10/24 13:07:20;;;;;;;3.78;1.60;;;21.10;99.90;;;;;;10054894;28;20045;-62
2022/10/24 13:12:29;;;;;;;4.75;1.27;;;21.20;99.90;;;;;;10058285;28;20025;-66
2022/10/24 13:17:43;;;;;;;4.18;1.67;;;21.10;99.90;;;;;;10056127;28;20029;-64
2022/10/24 13:22:36;;;;;;;4.22;1.38;;;21.40;99.90;;;;;;10055587;28;20065;-64
2022/10/24 13:27:30;;;;;;;4.13;2.38;;;21.60;99.90;;;;;;10054993;28;20035;-66
2022/10/24 13:32:21;;;;;;;2.40;1.23;;;21.40;99.90;;;;;;10056627;28;20021;-63
2022/10/24 13:37:31;;;;;;;3.70;1.08;;;21.30;99.90;;;;;;10054572;28;20029;-64
2022/10/24 13:42:30;;;;;;;2.28;1.17;;;20.90;99.90;;;;;;10056909;28;20049;-65
2022/10/24 13:47:44;;;;;;;3.30;1.23;;;20.60;99.90;;;;;;10056324;28;20025;-66
2022/10/24 13:52:49;;;;;;;2.47;0.90;;;20.40;99.90;;;;;;10055007;28;20500;-64
2022/10/24 13:58:05;;;;;;;2.05;1.30;;;20.30;99.90;;;;;;10053014;28;20091;-65
2022/10/24 14:02:58;;;;;;;2.80;1.20;;;20.40;99.90;;;;;;10055802;28;20063;-67
2022/10/24 14:07:49;;;;;;;5.47;1.50;;;20.70;99.90;;;;;;10055078;28;20033;-65
2022/10/24 14:12:40;;;;;;;3.92;1.83;;;20.90;99.90;;;;;;10055882;28;20060;-68
2022/10/24 14:17:34;;;;;;;4.30;1.20;;;20.60;99.90;;;;;;10052440;28;20129;-66
2022/10/24 14:22:29;;;;;;;4.65;1.40;;;20.30;99.90;;;;;;10048680;28;20048;-65
2022/10/24 14:27:20;;;;;;;2.40;1.00;;;20.40;99.90;;;;;;10046561;28;20430;-66
2022/10/24 14:32:14;;;;;;;2.65;1.02;;;20.80;99.90;;;;;;10049295;28;20026;-65
2022/10/24 14:37:10;;;;;;;1.30;0.98;;;21.40;99.90;;;;;;10052300;28;20486;-64
2022/10/24 14:42:01;;;;;;;2.60;1.45;;;21.10;99.90;;;;;;10053164;28;20416;-64
2022/10/24 14:47:29;;;;;;;2.65;1.70;;;20.60;99.90;;;;;;10052312;28;20025;-64
2022/10/24 14:52:27;;;;;;;2.70;1.15;;;20.30;99.90;;;;;;10048717;28;20086;-64
2022/10/24 14:57:20;;;;;;;2.92;1.10;;;20.10;99.90;;;;;;10050923;28;20186;-64
2022/10/24 15:02:19;;;;;;;5.07;1.55;;;20.10;99.90;;;;;;10052434;28;20518;-67
2022/10/24 15:07:22;;;;;;;4.25;1.45;;;20.20;99.90;;;;;;10049431;28;20160;-64
2022/10/24 15:12:13;;;;;;;4.97;1.52;;;20.20;99.90;;;;;;10051664;28;20033;-69
2022/10/24 15:17:28;;;;;;;3.50;1.55;;;20.20;99.90;;;;;;10055355;28;20040;-68
2022/10/24 15:22:29;;;;;;;3.15;1.10;;;20.30;99.90;;;;;;10047477;28;20192;-67
2022/10/24 15:27:39;;;;;;;2.50;1.48;;;20.30;99.90;;;;;;10051580;28;20034;-68
2022/10/24 15:32:30;;;;;;;5.43;1.50;;;20.40;99.90;;;;;;10050509;28;20104;-67
2022/10/24 15:37:23;;;;;;;4.78;1.67;;;20.40;99.90;;;;;;10051204;28;20504;-65
2022/10/24 15:42:14;;;;;;;5.85;1.70;;;20.30;99.90;;;;;;10051332;28;20045;-68
2022/10/24 15:47:05;;;;;;;4.55;1.60;;;20.20;99.90;;;;;;10048771;28;20326;-68
2022/10/24 15:52:00;;;;;;;4.47;2.20;;;20.00;99.90;;;;;;10042043;28;20034;-67
2022/10/24 15:56:51;;;;;;;7.97;1.65;;;20.00;99.90;;;;;;10049862;28;20357;-67
2022/10/24 16:01:48;;;;;;;5.50;1.60;;;19.90;99.90;;;;;;10048588;28;20053;-65
2022/10/24 16:06:38;;;;;;;3.72;1.92;;;19.80;99.90;;;;;;10048969;28;20450;-67
2022/10/24 16:11:30;;;;;;;9.48;2.42;;;19.70;99.90;;;;;;10050228;28;20047;-68
2022/10/24 16:16:21;;;;;;;2.47;1.60;;;19.60;99.90;;;;;;10055812;28;20108;-67
2022/10/24 16:21:18;;;;;;;4.45;2.30;;;19.60;99.90;;;;;;10052992;28;20121;-68
2022/10/24 16:26:08;;;;;;;10.45;2.90;;;19.40;99.90;;;;;;10050776;28;20030;-66
2022/10/24 16:30:59;;;;;;;5.20;2.10;;;19.40;99.90;;;;;;10050844;28;20082;-66
2022/10/24 16:35:50;;;;;;;4.15;1.33;;;19.30;99.90;;;;;;10052022;28;20049;-65
2022/10/24 16:40:43;;;;;;;2.97;1.25;;;19.00;99.90;;;;;;10051752;28;20045;-65
2022/10/24 16:45:34;;;;;;;4.90;0.93;;;18.40;99.90;;;;;;10050336;28;20036;-65
2022/10/24 16:50:27;;;;;;;3.63;0.88;;;16.70;99.90;;;;;;10051769;28;20019;-67
2022/10/24 16:55:19;;;;;;;0.77;0.60;;;15.20;99.90;;;;;;10051829;28;20068;-66
2022/10/24 17:00:13;;;;;;;2.97;0.98;;;14.50;99.90;;;;;;10051032;28;20029;-64
2022/10/24 17:05:04;;;;;;;1.13;0.40;;;14.60;99.90;;;;;;10049454;28;20748;-65
2022/10/24 17:09:55;;;;;;;2.55;0.93;;;14.60;99.90;;;;;;10047954;28;20025;-68
2022/10/24 17:14:46;;;;;;;3.33;0.70;;;14.70;99.90;;;;;;10056603;28;20038;-69
2022/10/24 17:19:37;;;;;;;1.50;1.20;;;14.90;99.90;;;;;;10053040;28;20038;-65
2022/10/24 17:24:28;;;;;;;0.60;0.60;;;15.00;99.90;;;;;;10051221;28;20030;-66
2022/10/24 17:29:32;;;;;;;2.50;0.77;;;15.20;99.90;;;;;;10052348;28;20575;-64
2022/10/24 17:34:23;;;;;;;2.28;0.82;;;15.30;99.90;;;;;;10050695;28;20033;-64
2022/10/24 17:39:23;;;;;;;2.42;0.70;;;15.40;99.90;;;;;;10049685;28;20227;-65
2022/10/24 17:44:16;;;;;;;1.45;0.93;;;15.50;99.90;;;;;;10052968;28;20030;-64
2022/10/24 17:49:09;;;;;;;0.88;0.80;;;15.60;99.90;;;;;;10050519;28;20108;-63
2022/10/24 17:54:00;;;;;;;1.95;1.00;;;15.70;99.90;;;;;;10052484;28;20029;-64
2022/10/24 17:58:50;;;;;;;3.53;0.98;;;15.60;99.90;;;;;;10052522;28;20025;-63
2022/10/24 18:03:41;;;;;;;4.43;1.55;;;15.70;99.90;;;;;;10054013;28;20411;-63
2022/10/24 18:08:32;;;;;;;3.92;2.25;;;15.80;99.90;;;;;;10051158;28;20031;-62
2022/10/24 18:13:23;;;;;;;2.30;1.15;;;15.80;99.90;;;;;;10052271;28;20083;-63
2022/10/24 18:18:14;;;;;;;1.60;1.08;;;15.80;99.90;;;;;;10050601;28;20029;-66
2022/10/24 18:23:05;;;;;;;2.63;1.50;;;15.80;99.90;;;;;;10054357;28;20033;-67
2022/10/24 18:27:56;;;;;;;3.83;1.83;;;15.80;99.90;;;;;;10053279;28;20412;-62
2022/10/24 18:32:47;;;;;;;3.38;1.55;;;16.00;99.90;;;;;;10056644;28;20025;-64
2022/10/24 18:37:38;;;;;;;2.72;1.30;;;15.90;99.90;;;;;;10055181;28;20033;-63
2022/10/24 18:42:49;;;;;;;1.85;0.98;;;15.90;99.90;;;;;;10051795;28;20042;-63
2022/10/24 18:47:40;;;;;;;0.10;0.10;;;15.80;99.90;;;;;;10047293;28;20025;-63
2022/10/24 18:53:06;;;;;;;4.25;0.70;;;14.90;99.90;;;;;;10050235;28;20018;-64
2022/10/24 18:57:57;;;;;;;2.17;0.77;;;14.40;99.90;;;;;;10049457;28;20021;-64
2022/10/24 19:03:05;;;;;;;2.25;0.90;;;14.20;99.90;;;;;;10049335;28;20052;-66
2022/10/24 19:07:55;;;;;;;1.30;0.95;;;14.30;99.90;;;;;;10046282;28;20487;-66
2022/10/24 19:12:46;;;;;;;3.70;1.45;;;14.30;99.90;;;;;;10050516;28;20056;-68
2022/10/24 19:17:37;;;;;;;1.70;1.48;;;14.60;99.90;;;;;;10049448;28;20018;-66
2022/10/24 19:22:28;;;;;;;2.00;0.70;;;14.80;99.90;;;;;;10048329;28;20044;-67
2022/10/24 19:27:19;;;;;;;1.38;0.70;;;14.80;99.90;;;;;;10048192;28;20072;-66
2022/10/24 19:32:10;;;;;;;1.63;0.50;;;14.90;99.90;;;;;;10049284;28;20072;-64
2022/10/24 19:37:03;;;;;;;2.53;0.70;;;14.80;99.90;;;;;;10052340;28;20088;-64
2022/10/24 19:41:53;;;;;;;4.00;1.00;;;14.80;99.90;;;;;;10053198;28;20159;-65
2022/10/24 19:46:44;;;;;;;4.00;0.65;;;14.80;99.90;;;;;;10052236;28;20029;-64
2022/10/24 19:51:34;;;;;;;3.97;1.67;;;14.80;99.90;;;;;;10050275;28;20353;-63
2022/10/24 19:56:27;;;;;;;1.48;1.00;;;14.80;99.90;;;;;;10052093;28;20084;-63
2022/10/24 20:01:20;;;;;;;1.65;0.60;;;14.80;99.90;;;;;;10053249;28;20033;-64
2022/10/24 20:06:11;;;;;;;2.88;1.08;;;14.90;99.90;;;;;;10050340;28;20045;-65
2022/10/24 20:11:03;;;;;;;3.88;1.02;;;14.80;99.90;;;;;;10050104;28;20037;-66
2022/10/24 20:15:56;;;;;;;0.57;0.57;;;14.80;99.90;;;;;;10051455;28;20661;-64
2022/10/24 20:20:47;;;;;;;1.23;0.60;;;14.90;99.90;;;;;;10048012;28;20030;-65
2022/10/24 20:25:37;;;;;;;1.38;0.93;;;14.80;99.90;;;;;;10046947;28;20104;-65
2022/10/24 20:30:28;;;;;;;3.28;1.50;;;14.70;99.90;;;;;;10046356;28;20399;-64
2022/10/24 20:35:20;;;;;;;2.78;0.90;;;14.70;99.90;;;;;;10044943;28;20502;-65
2022/10/24 20:40:11;;;;;;;2.17;1.00;;;14.70;99.90;;;;;;10046580;28;20041;-63
2022/10/24 20:45:03;;;;;;;5.05;0.93;;;14.60;99.90;;;;;;10047506;28;20539;-64
2022/10/24 20:49:53;;;;;;;5.65;1.35;;;14.60;99.90;;;;;;10052682;28;20014;-66
2022/10/24 20:54:44;;;;;;;2.08;1.10;;;14.50;99.90;;;;;;10055062;28;20030;-65
2022/10/24 20:59:35;;;;;;;2.75;1.05;;;14.50;99.90;;;;;;10054295;28;20439;-64
2022/10/24 21:04:25;;;;;;;3.83;1.23;;;14.50;99.90;;;;;;10053612;28;20403;-65
2022/10/24 21:09:16;;;;;;;3.05;1.25;;;14.50;99.90;;;;;;10053448;28;20491;-64
2022/10/24 21:14:10;;;;;;;2.60;1.38;;;14.50;99.90;;;;;;10057664;28;20373;-64
2022/10/24 21:19:02;;;;;;;2.53;1.40;;;14.50;99.90;;;;;;10058246;28;20292;-64
2022/10/24 21:23:58;;;;;;;2.78;0.80;;;14.50;99.90;;;;;;10057825;28;20057;-66
2022/10/24 21:28:51;;;;;;;2.47;1.20;;;14.50;99.90;;;;;;10058653;28;20483;-63
2022/10/24 21:33:42;;;;;;;2.10;1.25;;;14.50;99.90;;;;;;10056767;28;20029;-65
2022/10/24 21:38:33;;;;;;;2.28;1.13;;;14.40;99.90;;;;;;10057865;28;20411;-65
2022/10/24 21:43:24;;;;;;;5.22;1.63;;;14.50;99.90;;;;;;10056115;28;20021;-65
2022/10/24 21:48:14;;;;;;;3.33;1.13;;;14.50;99.90;;;;;;10053621;28;20559;-65
2022/10/24 21:53:05;;;;;;;1.50;0.88;;;14.40;99.90;;;;;;10052309;28;20496;-65
2022/10/24 21:57:56;;;;;;;3.15;0.93;;;14.40;99.90;;;;;;10050715;28;20435;-67
2022/10/24 22:02:47;;;;;;;2.40;0.98;;;14.40;99.90;;;;;;10050684;28;20041;-65
2022/10/24 22:07:37;;;;;;;1.80;1.40;;;14.40;99.90;;;;;;10049413;28;20045;-65
2022/10/24 22:12:28;;;;;;;5.78;1.27;;;14.40;99.90;;;;;;10051771;28;20029;-66
2022/10/24 22:17:19;;;;;;;3.08;0.88;;;14.30;99.90;;;;;;10051443;28;21122;-65
2022/10/24 22:22:13;;;;;;;3.38;1.08;;;14.30;99.90;;;;;;10051756;28;20033;-65
2022/10/24 22:27:03;;;;;;;1.38;0.82;;;14.30;99.90;;;;;;10051339;28;20021;-64
2022/10/24 22:31:54;;;;;;;1.08;0.75;;;14.20;99.90;;;;;;10049236;28;20037;-65
2022/10/24 22:37:10;;;;;;;1.83;1.23;;;14.20;99.90;;;;;;10051063;28;20031;-64
2022/10/24 22:42:00;;;;;;;3.73;1.00;;;14.20;99.90;;;;;;10050302;28;20065;-65
2022/10/24 22:46:57;;;;;;;3.92;1.00;;;14.10;99.90;;;;;;10050228;28;20480;-64
2022/10/24 22:51:48;;;;;;;3.28;1.05;;;14.10;99.90;;;;;;10052149;28;20062;-65
2022/10/24 22:56:39;;;;;;;1.15;0.88;;;14.10;99.90;;;;;;10054158;28;20036;-63
2022/10/24 23:01:58;;;;;;;1.88;1.00;;;14.00;99.90;;;;;;10054377;28;20534;-66
2022/10/24 23:07:18;;;;;;;5.05;1.35;;;14.00;99.90;;;;;;10053830;28;20052;-65
2022/10/24 23:12:19;;;;;;;2.33;0.90;;;13.90;99.90;;;;;;10049865;28;20037;-66
2022/10/24 23:17:13;;;;;;;3.72;1.20;;;14.00;99.90;;;;;;10051434;28;20041;-65
2022/10/24 23:22:16;;;;;;;1.83;0.80;;;14.00;99.90;;;;;;10048517;28;20029;-65
2022/10/24 23:27:13;;;;;;;2.00;1.42;;;14.00;99.90;;;;;;10048624;28;20589;-65
2022/10/24 23:32:12;;;;;;;1.67;0.98;;;14.00;99.90;;;;;;10048012;28;20112;-65
2022/10/24 23:37:03;;;;;;;4.57;1.27;;;14.00;99.90;;;;;;10048489;28;20044;-65
2022/10/24 23:41:54;;;;;;;2.50;1.42;;;14.00;99.90;;;;;;10047643;28;20037;-64
2022/10/24 23:46:51;;;;;;;1.45;0.95;;;14.00;99.90;;;;;;10046965;28;20031;-67
2022/10/24 23:51:57;;;;;;;3.35;1.10;;;14.00;99.90;;;;;;10049265;28;20057;-64
2022/10/24 23:56:48;;;;;;;2.22;1.40;;;13.90;99.90;;;;;;10047419;28;20024;-64
